Time;durP1;ratioP1;P1;durP2;ratioP2;P2;SDS_P1;SDS_P2;PMS_P1;PMS_P2;Temp;Humidity;BMP_temperature;BMP_pressure;BME280_temperature;BME280_humidity;BME280_pressure;Samples;Min_cycle;Max_cycle;Signal;HPM_P1;HPM_P2
2022/08/26 00:00:50;;;;;;;1.08;1.08;;;20.50;52.10;;;;;;5097270;28;20046;-72
2022/08/26 00:03:17;;;;;;;0.00;0.00;;;20.60;52.00;;;;;;5096980;28;20020;-72
2022/08/26 00:05:44;;;;;;;0.00;0.00;;;20.60;52.40;;;;;;5099807;28;20024;-72
2022/08/26 00:08:12;;;;;;;0.00;0.00;;;20.70;51.90;;;;;;5096272;28;20036;-72
2022/08/26 00:10:40;;;;;;;2.40;2.30;;;20.80;51.60;;;;;;5101319;28;20024;-72
2022/08/26 00:13:07;;;;;;;0.00;0.00;;;20.90;52.20;;;;;;5103668;28;20060;-72
2022/08/26 00:15:33;;;;;;;0.10;0.10;;;20.60;51.10;;;;;;5098479;28;20525;-72
2022/08/26 00:17:59;;;;;;;1.58;1.55;;;20.40;52.00;;;;;;5099437;28;20028;-72
2022/08/26 00:20:28;;;;;;;0.00;0.00;;;20.50;51.90;;;;;;5100045;28;20046;-72
2022/08/26 00:22:55;;;;;;;0.00;0.00;;;20.60;51.60;;;;;;5102054;28;20023;-72
2022/08/26 00:25:21;;;;;;;0.20;0.20;;;20.70;50.30;;;;;;5105854;28;20027;-72
2022/08/26 00:27:47;;;;;;;4.30;0.85;;;20.70;50.10;;;;;;5106546;28;20028;-72
2022/08/26 00:30:18;;;;;;;7.00;1.35;;;20.30;52.70;;;;;;5095918;28;20034;-72
2022/08/26 00:32:45;;;;;;;0.00;0.00;;;19.80;54.90;;;;;;5101961;28;20069;-73
2022/08/26 00:35:12;;;;;;;0.80;0.80;;;19.80;54.70;;;;;;5100728;27;20086;-72
2022/08/26 00:37:39;;;;;;;0.00;0.00;;;20.10;53.70;;;;;;5102232;28;20027;-72
2022/08/26 00:40:16;;;;;;;0.10;0.10;;;20.20;52.20;;;;;;5107637;28;20418;-72
2022/08/26 00:42:43;;;;;;;0.00;0.00;;;20.50;50.50;;;;;;5104123;28;20089;-72
2022/08/26 00:45:10;;;;;;;0.10;0.10;;;20.60;48.50;;;;;;5100955;28;20019;-72
2022/08/26 00:47:43;;;;;;;0.32;0.30;;;20.80;47.20;;;;;;5101390;28;20024;-72
2022/08/26 00:50:13;;;;;;;0.00;0.00;;;20.70;48.50;;;;;;5098328;28;20047;-71
2022/08/26 00:52:41;;;;;;;0.00;0.00;;;20.60;49.20;;;;;;5101753;28;20019;-71
2022/08/26 00:55:20;;;;;;;0.35;0.35;;;20.60;49.70;;;;;;5097998;28;20031;-71
2022/08/26 00:57:49;;;;;;;2.15;2.05;;;20.60;50.00;;;;;;5099193;28;20098;-71
2022/08/26 01:00:19;;;;;;;0.00;0.00;;;20.50;50.80;;;;;;5096397;28;20044;-72
2022/08/26 01:02:48;;;;;;;0.00;0.00;;;20.60;51.00;;;;;;5098792;28;20100;-72
2022/08/26 01:05:16;;;;;;;0.00;0.00;;;20.80;51.00;;;;;;5096825;28;20036;-72
2022/08/26 01:07:42;;;;;;;0.03;0.03;;;20.80;51.00;;;;;;5097111;28;20061;-72
2022/08/26 01:10:16;;;;;;;0.00;0.00;;;20.70;52.20;;;;;;5094410;28;20386;-72
2022/08/26 01:12:47;;;;;;;0.10;0.10;;;20.50;52.90;;;;;;5093972;28;20028;-72
2022/08/26 01:15:21;;;;;;;0.00;0.00;;;20.40;52.50;;;;;;5096269;28;20081;-72
2022/08/26 01:17:48;;;;;;;2.30;2.20;;;20.50;51.60;;;;;;5097061;28;20116;-72
2022/08/26 01:20:33;;;;;;;0.00;0.00;;;20.50;52.00;;;;;;5100366;27;20031;-73
2022/08/26 01:23:03;;;;;;;0.00;0.00;;;20.50;52.00;;;;;;5093811;28;20024;-73
2022/08/26 01:25:32;;;;;;;0.00;0.00;;;20.50;53.00;;;;;;5093474;28;20739;-73
2022/08/26 01:28:04;;;;;;;0.00;0.00;;;20.50;51.60;;;;;;5094978;28;20142;-71
2022/08/26 01:30:32;;;;;;;0.00;0.00;;;20.70;50.20;;;;;;5098455;28;20443;-71
2022/08/26 01:33:01;;;;;;;0.00;0.00;;;20.80;51.40;;;;;;5102144;28;20031;-71
2022/08/26 01:35:29;;;;;;;0.00;0.00;;;20.80;51.50;;;;;;5093319;28;20035;-71
2022/08/26 01:37:56;;;;;;;0.00;0.00;;;20.90;53.10;;;;;;5097760;28;20367;-72
2022/08/26 01:40:30;;;;;;;0.00;0.00;;;20.80;53.10;;;;;;5097365;28;20028;-72
2022/08/26 01:42:58;;;;;;;0.00;0.00;;;20.90;55.20;;;;;;5098099;28;20024;-71
2022/08/26 01:45:27;;;;;;;0.30;0.30;;;20.90;54.40;;;;;;5101432;28;20445;-72
2022/08/26 01:47:58;;;;;;;0.00;0.00;;;20.90;59.70;;;;;;5101973;28;20078;-72
2022/08/26 01:50:29;;;;;;;0.10;0.10;;;20.80;61.20;;;;;;5101986;28;20386;-72
2022/08/26 01:52:58;;;;;;;1.50;1.40;;;20.40;59.30;;;;;;5103084;28;20027;-72
2022/08/26 01:55:26;;;;;;;0.00;0.00;;;19.90;61.60;;;;;;5101666;28;20035;-72
2022/08/26 01:57:55;;;;;;;0.00;0.00;;;19.70;65.60;;;;;;5098615;28;20040;-72
2022/08/26 02:00:22;;;;;;;0.00;0.00;;;19.70;80.40;;;;;;5100319;28;20036;-72
2022/08/26 02:05:38;;;;;;;0.00;0.00;;;19.80;99.90;;;;;;5099221;28;20026;-72
2022/08/26 02:08:06;;;;;;;0.00;0.00;;;19.80;99.90;;;;;;5102933;28;20031;-72
2022/08/26 02:10:32;;;;;;;0.17;0.17;;;19.80;99.90;;;;;;5095422;28;20028;-71
2022/08/26 02:12:58;;;;;;;1.85;1.75;;;19.90;99.90;;;;;;5098834;28;20043;-72
2022/08/26 02:15:25;;;;;;;0.00;0.00;;;19.90;99.90;;;;;;5097984;28;20030;-71
2022/08/26 02:17:52;;;;;;;0.00;0.00;;;20.00;99.90;;;;;;5097270;28;20039;-72
2022/08/26 02:20:19;;;;;;;0.00;0.00;;;20.10;99.90;;;;;;5101089;28;20028;-72
2022/08/26 02:22:46;;;;;;;0.00;0.00;;;20.40;99.90;;;;;;5103428;28;20070;-72
2022/08/26 02:25:24;;;;;;;0.00;0.00;;;20.50;99.90;;;;;;5101161;27;20031;-72
2022/08/26 02:27:50;;;;;;;0.00;0.00;;;20.60;99.90;;;;;;5104432;28;20471;-72
2022/08/26 02:30:23;;;;;;;0.00;0.00;;;20.80;99.90;;;;;;5101516;28;20482;-72
2022/08/26 02:32:50;;;;;;;0.00;0.00;;;21.00;99.90;;;;;;5098919;28;20047;-71
2022/08/26 02:35:19;;;;;;;0.00;0.00;;;21.10;99.90;;;;;;5103555;28;20035;-72
2022/08/26 02:37:46;;;;;;;0.00;0.00;;;21.00;99.90;;;;;;5101666;28;20027;-72
2022/08/26 02:40:15;;;;;;;0.52;0.52;;;20.90;99.50;;;;;;5106799;28;20423;-72
2022/08/26 02:42:41;;;;;;;0.00;0.00;;;20.90;96.20;;;;;;5100901;28;20027;-71
2022/08/26 02:45:08;;;;;;;0.10;0.10;;;21.00;96.30;;;;;;5100177;28;20094;-72
2022/08/26 02:47:34;;;;;;;0.00;0.00;;;21.10;97.20;;;;;;5101182;28;20073;-72
2022/08/26 02:50:00;;;;;;;0.00;0.00;;;21.10;96.40;;;;;;5098694;28;20481;-72
2022/08/26 02:52:26;;;;;;;0.00;0.00;;;21.10;92.30;;;;;;5099397;28;20425;-72
2022/08/26 02:54:53;;;;;;;0.00;0.00;;;21.10;92.70;;;;;;5104294;28;20023;-72
2022/08/26 02:57:19;;;;;;;0.00;0.00;;;21.00;88.70;;;;;;5101492;28;20397;-72
2022/08/26 02:59:45;;;;;;;0.00;0.00;;;21.20;92.80;;;;;;5099448;28;20047;-72
2022/08/26 03:02:11;;;;;;;0.00;0.00;;;21.40;89.10;;;;;;5100196;28;20031;-75
2022/08/26 03:04:39;;;;;;;4.80;3.50;;;21.60;91.50;;;;;;5096622;28;20094;-72
2022/08/26 03:07:05;;;;;;;0.00;0.00;;;21.80;86.40;;;;;;5094966;28;20147;-72
2022/08/26 03:09:32;;;;;;;0.45;0.45;;;21.90;82.20;;;;;;5097056;28;20373;-72
2022/08/26 03:11:58;;;;;;;1.20;1.15;;;21.80;85.90;;;;;;5097577;28;20048;-73
2022/08/26 03:14:25;;;;;;;0.90;0.90;;;21.90;90.00;;;;;;5096806;28;20490;-72
2022/08/26 03:16:53;;;;;;;0.20;0.20;;;22.00;81.60;;;;;;5093467;28;20106;-72
2022/08/26 03:19:21;;;;;;;0.00;0.00;;;21.90;75.70;;;;;;5093443;28;20028;-73
2022/08/26 03:21:47;;;;;;;0.00;0.00;;;22.10;73.70;;;;;;5087219;28;20117;-74
2022/08/26 03:24:15;;;;;;;0.00;0.00;;;22.20;70.60;;;;;;5092753;27;20031;-71
2022/08/26 03:26:41;;;;;;;0.00;0.00;;;22.40;69.40;;;;;;5101364;28;20028;-73
2022/08/26 03:31:53;;;;;;;0.00;0.00;;;22.60;60.60;;;;;;5099378;28;20035;-71
2022/08/26 03:34:19;;;;;;;0.00;0.00;;;22.80;59.20;;;;;;5103789;28;20060;-73
2022/08/26 03:36:45;;;;;;;0.00;0.00;;;23.10;58.60;;;;;;5098531;28;20081;-73
2022/08/26 03:39:12;;;;;;;0.00;0.00;;;23.20;57.90;;;;;;5099154;28;20032;-73
2022/08/26 03:41:39;;;;;;;0.00;0.00;;;23.30;56.80;;;;;;5095619;28;20343;-73
2022/08/26 03:44:07;;;;;;;0.00;0.00;;;23.30;56.50;;;;;;5090372;28;20038;-71
2022/08/26 03:46:34;;;;;;;0.00;0.00;;;23.30;55.00;;;;;;5103761;28;20458;-73
2022/08/26 03:49:04;;;;;;;0.00;0.00;;;23.30;54.10;;;;;;5100227;28;20034;-72
2022/08/26 03:51:31;;;;;;;0.00;0.00;;;23.30;53.10;;;;;;5101902;28;20039;-72
2022/08/26 03:53:59;;;;;;;0.10;0.10;;;23.10;53.60;;;;;;5101971;28;20099;-73
2022/08/26 03:56:26;;;;;;;0.00;0.00;;;23.10;53.80;;;;;;5097263;28;20034;-73
2022/08/26 03:58:53;;;;;;;0.00;0.00;;;22.90;54.70;;;;;;5096700;27;20044;-73
2022/08/26 04:01:19;;;;;;;0.08;0.08;;;22.80;56.20;;;;;;5093679;28;20032;-73
2022/08/26 04:03:58;;;;;;;0.00;0.00;;;22.90;58.10;;;;;;5097173;28;20103;-72
2022/08/26 04:06:27;;;;;;;0.00;0.00;;;23.00;58.10;;;;;;5096146;28;20054;-72
2022/08/26 04:08:54;;;;;;;1.48;1.38;;;23.00;55.50;;;;;;5098322;28;20378;-73
2022/08/26 04:11:23;;;;;;;0.00;0.00;;;22.80;56.90;;;;;;5095369;28;20028;-72
2022/08/26 04:13:49;;;;;;;0.22;0.20;;;22.70;57.10;;;;;;5097509;28;20032;-71
2022/08/26 04:16:17;;;;;;;0.00;0.00;;;23.00;55.20;;;;;;5094047;28;20031;-72
2022/08/26 04:18:49;;;;;;;0.00;0.00;;;22.90;56.70;;;;;;5095892;28;20092;-73
2022/08/26 04:21:16;;;;;;;0.00;0.00;;;23.00;55.50;;;;;;5099929;28;20496;-73
2022/08/26 04:23:42;;;;;;;1.63;0.30;;;22.70;55.80;;;;;;5102768;28;20023;-74
2022/08/26 04:26:09;;;;;;;0.00;0.00;;;22.80;55.50;;;;;;5100007;28;20020;-72
2022/08/26 04:28:35;;;;;;;0.10;0.10;;;22.90;55.50;;;;;;5101820;27;20027;-73
2022/08/26 04:31:02;;;;;;;0.00;0.00;;;22.80;56.80;;;;;;5102888;28;20031;-73
2022/08/26 04:33:28;;;;;;;0.00;0.00;;;22.80;59.60;;;;;;5101724;28;20020;-72
2022/08/26 04:36:04;;;;;;;0.10;0.10;;;22.90;58.20;;;;;;5098965;28;20027;-72
2022/08/26 04:38:31;;;;;;;0.00;0.00;;;22.60;58.10;;;;;;5101364;28;20057;-72
2022/08/26 04:40:57;;;;;;;0.70;0.47;;;22.30;58.20;;;;;;5099571;28;20130;-72
2022/08/26 04:43:29;;;;;;;0.00;0.00;;;22.30;58.00;;;;;;5096441;27;20024;-74
2022/08/26 04:46:00;;;;;;;0.00;0.00;;;22.40;57.80;;;;;;5095256;27;20396;-74
2022/08/26 04:48:31;;;;;;;0.10;0.00;;;22.40;56.60;;;;;;5093962;28;20021;-73
2022/08/26 04:50:58;;;;;;;0.17;0.17;;;22.50;56.40;;;;;;5100894;28;20038;-74
2022/08/26 04:53:27;;;;;;;0.20;0.20;;;22.40;55.60;;;;;;5103075;28;20437;-75
2022/08/26 04:55:53;;;;;;;0.20;0.20;;;22.20;56.60;;;;;;5103263;28;20366;-74
2022/08/26 04:58:22;;;;;;;0.10;0.10;;;22.00;57.30;;;;;;5099498;28;20596;-73
2022/08/26 05:00:49;;;;;;;1.35;0.77;;;22.00;57.80;;;;;;5066626;28;20048;-74
2022/08/26 05:03:18;;;;;;;2.75;1.00;;;21.80;58.00;;;;;;5068075;28;20043;-74
2022/08/26 05:05:46;;;;;;;0.68;0.57;;;21.50;62.00;;;;;;5063705;28;20024;-74
2022/08/26 05:08:14;;;;;;;2.40;1.90;;;21.40;67.90;;;;;;5061453;28;20037;-73
2022/08/26 05:10:47;;;;;;;3.08;2.17;;;20.90;74.40;;;;;;5064298;28;20020;-75
2022/08/26 05:13:17;;;;;;;6.20;1.45;;;20.30;98.10;;;;;;5066443;28;20225;-75
2022/08/26 05:15:44;;;;;;;0.95;0.90;;;20.00;99.90;;;;;;5066390;28;20441;-74
2022/08/26 05:18:12;;;;;;;3.35;1.60;;;20.10;99.90;;;;;;5068886;28;20442;-74
2022/08/26 05:20:48;;;;;;;1.50;0.95;;;20.20;99.90;;;;;;5068424;28;20028;-73
2022/08/26 05:23:15;;;;;;;2.88;0.80;;;20.30;99.90;;;;;;5063483;28;20082;-73
2022/08/26 05:25:44;;;;;;;2.92;1.67;;;20.50;99.90;;;;;;5065629;28;20056;-74
2022/08/26 05:28:12;;;;;;;3.35;2.05;;;20.70;99.90;;;;;;5061741;28;20110;-74
2022/08/26 05:30:39;;;;;;;0.35;0.35;;;20.90;98.40;;;;;;5063588;28;20115;-73
2022/08/26 05:33:07;;;;;;;1.60;1.25;;;21.20;96.40;;;;;;5066789;28;20386;-74
2022/08/26 05:35:34;;;;;;;3.25;2.22;;;21.60;93.60;;;;;;5065514;28;20056;-74
2022/08/26 05:38:02;;;;;;;3.88;1.35;;;21.60;92.60;;;;;;5066986;28;20420;-73
2022/08/26 05:40:30;;;;;;;1.75;1.13;;;21.50;88.90;;;;;;5065955;28;20455;-73
2022/08/26 05:42:58;;;;;;;0.00;0.00;;;21.30;89.10;;;;;;5066157;28;20028;-75
2022/08/26 05:45:26;;;;;;;1.08;0.82;;;21.30;90.50;;;;;;5067922;28;20021;-74
2022/08/26 05:47:52;;;;;;;3.60;1.40;;;21.60;88.50;;;;;;5064102;28;20451;-74
2022/08/26 05:50:24;;;;;;;1.55;1.23;;;21.50;84.70;;;;;;5065415;28;20036;-74
2022/08/26 05:52:50;;;;;;;0.00;0.00;;;21.40;84.20;;;;;;5062594;28;20017;-75
2022/08/26 05:55:17;;;;;;;0.00;0.00;;;21.30;86.70;;;;;;5065634;28;20086;-74
2022/08/26 05:57:48;;;;;;;3.95;0.90;;;21.60;85.90;;;;;;5065370;28;20017;-73
2022/08/26 06:00:15;;;;;;;1.10;0.75;;;21.70;82.50;;;;;;5090536;28;20501;-74
2022/08/26 06:02:41;;;;;;;1.73;0.45;;;21.90;82.10;;;;;;5094686;28;20435;-76
2022/08/26 06:05:07;;;;;;;0.10;0.10;;;21.70;81.80;;;;;;5097033;28;20061;-73
2022/08/26 06:10:18;;;;;;;1.20;1.00;;;21.60;82.90;;;;;;5094271;28;20042;-74
2022/08/26 06:12:45;;;;;;;0.38;0.35;;;21.50;84.00;;;;;;5101237;28;20027;-75
2022/08/26 06:15:11;;;;;;;4.32;0.82;;;21.60;85.80;;;;;;5097995;28;20471;-75
2022/08/26 06:17:37;;;;;;;2.83;1.65;;;21.70;84.30;;;;;;5098851;28;20036;-73
2022/08/26 06:20:03;;;;;;;1.98;0.80;;;21.70;82.90;;;;;;5100486;28;20475;-74
2022/08/26 06:28:01;;;;;;;4.15;2.10;;;21.60;87.60;;;;;;5096639;28;20030;-75
2022/08/26 06:30:27;;;;;;;2.75;1.15;;;21.40;90.30;;;;;;5097323;28;20027;-73
2022/08/26 06:32:53;;;;;;;4.57;1.30;;;21.50;91.10;;;;;;5092601;28;20051;-73
2022/08/26 06:35:19;;;;;;;4.05;2.17;;;21.50;91.20;;;;;;5096584;28;20457;-74
2022/08/26 06:37:46;;;;;;;1.70;0.68;;;21.70;90.40;;;;;;5088841;28;20102;-76
2022/08/26 06:40:12;;;;;;;6.72;2.95;;;21.60;89.90;;;;;;5089228;28;20480;-74
2022/08/26 06:42:38;;;;;;;3.70;1.40;;;21.90;89.40;;;;;;5093235;28;20104;-76
2022/08/26 06:45:05;;;;;;;2.05;1.20;;;22.10;86.40;;;;;;5094566;28;20075;-74
2022/08/26 06:47:32;;;;;;;3.63;0.80;;;22.20;84.10;;;;;;5094796;28;20051;-74
2022/08/26 06:49:58;;;;;;;4.32;1.40;;;22.10;83.40;;;;;;5095064;28;20299;-74
2022/08/26 06:52:24;;;;;;;5.10;1.50;;;22.20;82.60;;;;;;5099957;28;20028;-76
2022/08/26 06:54:50;;;;;;;7.10;2.28;;;22.20;78.30;;;;;;5095915;28;20024;-76
2022/08/26 06:57:16;;;;;;;4.18;1.05;;;21.80;80.20;;;;;;5095877;28;20020;-76
2022/08/26 06:59:42;;;;;;;4.80;2.05;;;21.90;81.20;;;;;;5101143;28;20485;-74
2022/08/26 07:02:08;;;;;;;4.95;1.20;;;21.70;81.30;;;;;;5098071;28;20557;-76
2022/08/26 07:04:34;;;;;;;0.90;0.20;;;21.60;85.80;;;;;;5099163;28;20024;-73
2022/08/26 07:07:03;;;;;;;13.80;2.10;;;21.80;86.80;;;;;;5098336;28;20028;-76
2022/08/26 07:09:31;;;;;;;17.95;1.92;;;21.90;75.00;;;;;;5096825;28;20374;-75
2022/08/26 07:11:58;;;;;;;3.13;1.42;;;21.90;75.10;;;;;;5098071;28;20035;-75
2022/08/26 07:14:24;;;;;;;4.90;1.80;;;21.90;74.10;;;;;;5099429;28;20425;-75
2022/08/26 07:16:51;;;;;;;0.17;0.13;;;21.70;72.00;;;;;;5105103;27;20077;-76
2022/08/26 07:19:18;;;;;;;1.08;0.47;;;21.70;70.30;;;;;;5099362;28;20020;-75
2022/08/26 07:21:44;;;;;;;1.70;0.63;;;22.00;73.60;;;;;;5094854;28;20516;-74
2022/08/26 07:24:11;;;;;;;6.60;1.20;;;22.50;70.90;;;;;;5096126;28;20023;-74
2022/08/26 07:26:37;;;;;;;2.75;1.20;;;22.40;68.90;;;;;;5102635;28;20100;-75
2022/08/26 07:29:03;;;;;;;16.63;3.50;;;22.60;65.70;;;;;;5098831;28;20024;-75
2022/08/26 07:31:34;;;;;;;1.15;0.75;;;22.80;65.50;;;;;;5095256;28;20386;-75
2022/08/26 07:34:03;;;;;;;3.00;2.30;;;22.90;65.60;;;;;;5096716;28;20517;-75
2022/08/26 07:36:29;;;;;;;6.05;0.85;;;22.70;63.20;;;;;;5096797;28;20080;-75
2022/08/26 07:38:55;;;;;;;7.38;0.93;;;22.50;60.90;;;;;;5098560;28;20028;-75
2022/08/26 07:41:23;;;;;;;1.30;0.98;;;22.30;63.40;;;;;;5098179;28;20035;-75
2022/08/26 07:43:51;;;;;;;6.63;0.85;;;22.60;61.90;;;;;;5093961;28;20115;-75
2022/08/26 07:46:18;;;;;;;0.20;0.10;;;22.70;62.50;;;;;;5095144;28;20516;-75
2022/08/26 07:48:46;;;;;;;5.93;2.45;;;22.90;61.50;;;;;;5098741;28;20373;-75
2022/08/26 07:51:14;;;;;;;0.43;0.20;;;22.90;60.50;;;;;;5093586;28;20043;-75
2022/08/26 07:53:41;;;;;;;2.65;1.45;;;22.80;59.60;;;;;;5091128;28;20112;-75
2022/08/26 07:56:07;;;;;;;3.22;2.95;;;22.90;60.40;;;;;;5095626;28;20020;-75
2022/08/26 07:58:34;;;;;;;0.32;0.10;;;23.10;61.00;;;;;;5096853;28;20572;-75
2022/08/26 08:01:00;;;;;;;3.13;1.85;;;23.30;61.70;;;;;;5092538;28;20040;-75
2022/08/26 08:03:28;;;;;;;2.72;2.53;;;23.30;59.30;;;;;;5096317;28;20084;-75
2022/08/26 08:05:54;;;;;;;2.83;1.40;;;23.20;60.10;;;;;;5093114;28;20415;-74
2022/08/26 08:08:24;;;;;;;4.82;0.82;;;23.40;58.90;;;;;;5092467;28;20035;-75
2022/08/26 08:10:50;;;;;;;3.28;2.40;;;22.90;60.20;;;;;;5094786;28;20119;-75
2022/08/26 08:13:18;;;;;;;4.75;1.35;;;22.80;61.30;;;;;;5092905;28;20466;-73
2022/08/26 08:15:45;;;;;;;3.08;1.70;;;23.10;59.60;;;;;;5096012;28;20031;-76
2022/08/26 08:18:11;;;;;;;1.25;1.15;;;23.20;59.40;;;;;;5092369;28;20031;-74
2022/08/26 08:20:37;;;;;;;0.38;0.30;;;23.30;60.40;;;;;;5094639;28;20036;-75
2022/08/26 08:23:03;;;;;;;0.17;0.17;;;23.40;61.00;;;;;;5093735;28;20024;-75
2022/08/26 08:25:31;;;;;;;5.03;1.45;;;23.40;59.70;;;;;;5092816;28;20072;-74
2022/08/26 08:27:57;;;;;;;2.75;1.38;;;23.60;60.00;;;;;;5094501;28;20564;-74
2022/08/26 08:30:33;;;;;;;2.65;0.63;;;23.40;59.20;;;;;;5092896;28;20040;-75
2022/08/26 08:33:02;;;;;;;11.88;2.00;;;23.30;59.90;;;;;;5094369;28;20427;-74
2022/08/26 08:35:28;;;;;;;0.17;0.15;;;23.30;59.40;;;;;;5091323;28;20036;-75
2022/08/26 08:37:54;;;;;;;8.65;3.67;;;23.30;59.70;;;;;;5092808;28;20027;-75
2022/08/26 08:40:23;;;;;;;1.13;0.82;;;23.50;58.70;;;;;;5092905;28;20404;-75
2022/08/26 08:43:05;;;;;;;4.78;1.63;;;23.20;57.90;;;;;;5093310;28;20123;-74
2022/08/26 08:45:39;;;;;;;2.97;1.10;;;23.20;57.80;;;;;;5095556;28;20359;-76
2022/08/26 08:48:26;;;;;;;0.85;0.85;;;23.00;58.30;;;;;;5092429;28;20058;-76
2022/08/26 08:51:03;;;;;;;7.28;2.83;;;23.00;58.90;;;;;;5092283;28;20060;-76
2022/08/26 08:53:43;;;;;;;0.75;0.65;;;23.30;57.10;;;;;;5092636;28;20020;-75
2022/08/26 08:56:25;;;;;;;3.22;1.80;;;23.40;56.80;;;;;;5094452;28;20028;-74
2022/08/26 08:58:53;;;;;;;0.60;0.40;;;23.30;56.20;;;;;;5090831;28;20106;-74
2022/08/26 09:01:46;;;;;;;0.40;0.30;;;23.50;57.00;;;;;;5090982;28;20035;-74
2022/08/26 09:04:37;;;;;;;0.25;0.17;;;23.60;56.10;;;;;;5088534;28;20046;-75
2022/08/26 09:07:05;;;;;;;0.00;0.00;;;23.50;55.10;;;;;;5092250;28;20031;-75
2022/08/26 09:09:39;;;;;;;0.43;0.10;;;23.30;56.10;;;;;;5092789;28;20489;-74
2022/08/26 09:12:14;;;;;;;11.57;3.75;;;23.30;57.30;;;;;;5090213;28;20031;-76
2022/08/26 09:14:42;;;;;;;4.30;1.38;;;23.30;57.60;;;;;;5095065;28;20034;-74
2022/08/26 09:17:25;;;;;;;8.02;1.23;;;23.10;57.70;;;;;;5094926;28;20322;-74
2022/08/26 09:19:57;;;;;;;0.20;0.05;;;23.10;56.80;;;;;;5095610;28;20024;-74
2022/08/26 09:22:33;;;;;;;1.33;0.85;;;23.10;56.70;;;;;;5091482;28;20055;-74
2022/08/26 09:25:00;;;;;;;2.22;1.45;;;23.10;55.60;;;;;;5091487;28;21788;-74
2022/08/26 09:28:04;;;;;;;1.52;0.85;;;23.20;56.30;;;;;;5089990;28;20035;-75
2022/08/26 09:30:39;;;;;;;0.47;0.32;;;23.20;56.70;;;;;;5090349;28;20410;-76
2022/08/26 09:33:08;;;;;;;0.10;0.10;;;23.30;53.60;;;;;;5089576;28;20020;-76
2022/08/26 09:35:38;;;;;;;5.10;1.65;;;23.20;53.40;;;;;;5088997;28;20427;-75
2022/08/26 09:38:24;;;;;;;0.68;0.68;;;23.30;53.70;;;;;;5090466;28;20020;-73
2022/08/26 09:41:03;;;;;;;0.85;0.80;;;23.20;55.90;;;;;;5096888;28;20027;-74
2022/08/26 09:43:30;;;;;;;1.98;0.68;;;23.20;55.20;;;;;;5094310;28;20031;-75
2022/08/26 09:46:14;;;;;;;0.00;0.00;;;23.20;55.60;;;;;;5090527;28;20375;-76
2022/08/26 09:48:41;;;;;;;1.00;0.75;;;23.10;55.70;;;;;;5094492;28;20023;-73
2022/08/26 09:51:32;;;;;;;1.92;1.05;;;23.20;56.10;;;;;;5093313;28;20059;-75
2022/08/26 09:54:01;;;;;;;2.38;1.85;;;23.20;55.10;;;;;;5092926;28;20031;-75
2022/08/26 09:56:31;;;;;;;5.90;1.05;;;23.20;56.90;;;;;;5090528;28;20028;-73
2022/08/26 09:58:58;;;;;;;0.40;0.40;;;23.00;56.00;;;;;;5092549;28;20095;-74
2022/08/26 10:01:32;;;;;;;5.38;0.85;;;22.80;56.00;;;;;;5094102;28;20043;-75
2022/08/26 10:04:10;;;;;;;0.20;0.20;;;22.80;56.60;;;;;;5093429;28;20046;-75
2022/08/26 10:06:59;;;;;;;0.52;0.40;;;23.10;56.50;;;;;;5097029;28;20111;-75
2022/08/26 10:09:27;;;;;;;0.00;0.00;;;23.30;55.70;;;;;;5089943;28;20098;-74
2022/08/26 10:11:59;;;;;;;2.63;1.13;;;23.30;55.00;;;;;;5094095;28;20038;-73
2022/08/26 10:14:46;;;;;;;10.15;2.63;;;23.30;55.80;;;;;;5084636;28;20142;-74
2022/08/26 10:17:27;;;;;;;1.48;0.55;;;23.20;55.30;;;;;;5089189;28;20024;-75
2022/08/26 10:20:05;;;;;;;1.63;0.57;;;23.10;55.30;;;;;;5095674;28;20012;-74
2022/08/26 10:22:55;;;;;;;11.05;3.03;;;23.00;55.20;;;;;;5091008;28;20030;-73
2022/08/26 10:25:46;;;;;;;9.95;2.50;;;22.90;55.90;;;;;;5091984;28;20040;-74
2022/08/26 10:28:47;;;;;;;0.70;0.32;;;22.90;55.70;;;;;;5093596;28;20046;-73
2022/08/26 10:31:23;;;;;;;4.43;1.70;;;22.90;56.60;;;;;;5099351;28;20063;-73
2022/08/26 10:33:50;;;;;;;0.40;0.40;;;23.00;56.30;;;;;;5098968;28;20032;-73
2022/08/26 10:39:08;;;;;;;4.90;2.28;;;23.10;56.20;;;;;;5104263;28;20030;-74
2022/08/26 10:41:40;;;;;;;0.00;0.00;;;23.30;56.40;;;;;;5105394;28;20043;-74
2022/08/26 10:44:09;;;;;;;0.20;0.10;;;23.60;56.30;;;;;;5096312;28;20935;-74
2022/08/26 10:46:49;;;;;;;3.28;0.88;;;23.50;54.10;;;;;;5102360;27;20330;-74
2022/08/26 10:49:17;;;;;;;0.52;0.35;;;23.40;54.10;;;;;;5098482;28;20028;-73
2022/08/26 10:51:53;;;;;;;0.70;0.70;;;23.30;53.60;;;;;;5102967;28;20036;-73
2022/08/26 10:54:42;;;;;;;3.03;1.38;;;23.30;52.40;;;;;;5108972;27;20028;-73
2022/08/26 10:57:17;;;;;;;0.85;0.70;;;23.40;52.70;;;;;;5096266;28;20020;-74
2022/08/26 11:01:40;;;;;;;0.77;0.17;;;23.30;53.20;;;;;;5097763;27;20036;-73
2022/08/26 11:03:25;;;;;;;1.50;0.55;;;23.40;52.50;;;;;;5099802;28;20538;-74
2022/08/26 11:06:27;;;;;;;0.30;0.30;;;23.40;52.20;;;;;;5096802;28;20114;-73
2022/08/26 11:08:59;;;;;;;0.30;0.15;;;23.40;53.00;;;;;;5098592;28;20015;-75
2022/08/26 11:11:46;;;;;;;1.50;0.90;;;23.40;52.00;;;;;;5095437;28;20024;-75
2022/08/26 11:14:18;;;;;;;0.00;0.00;;;23.30;51.60;;;;;;5095148;28;20024;-76
2022/08/26 11:16:50;;;;;;;1.40;0.88;;;23.30;51.80;;;;;;5098224;28;20064;-75
2022/08/26 11:19:38;;;;;;;3.55;1.85;;;23.40;51.60;;;;;;5098930;28;20055;-75
2022/08/26 11:22:29;;;;;;;0.00;0.00;;;23.50;51.00;;;;;;5099931;28;20030;-73
2022/08/26 11:24:55;;;;;;;1.50;0.68;;;23.70;51.10;;;;;;5098203;28;21035;-76
2022/08/26 11:27:27;;;;;;;0.00;0.00;;;23.60;49.80;;;;;;5101824;28;20039;-75
2022/08/26 11:30:33;;;;;;;2.75;0.20;;;23.60;49.80;;;;;;5101039;28;20053;-75
2022/08/26 11:33:00;;;;;;;2.83;1.20;;;23.40;50.10;;;;;;5103913;28;20493;-73
2022/08/26 11:35:26;;;;;;;3.50;2.20;;;23.50;52.10;;;;;;5097594;28;20027;-74
2022/08/26 11:38:14;;;;;;;0.93;0.47;;;23.40;52.00;;;;;;5091486;28;20161;-75
2022/08/26 11:40:40;;;;;;;0.32;0.20;;;23.30;51.50;;;;;;5093457;28;20397;-74
2022/08/26 11:43:13;;;;;;;1.85;0.30;;;23.40;51.60;;;;;;5098300;28;20035;-72
2022/08/26 11:46:04;;;;;;;0.00;0.00;;;23.40;50.40;;;;;;5096435;28;20019;-74
2022/08/26 11:48:41;;;;;;;1.88;0.88;;;23.50;50.60;;;;;;5096629;28;20044;-73
2022/08/26 11:51:21;;;;;;;0.00;0.00;;;23.50;50.40;;;;;;5092677;28;20482;-75
2022/08/26 11:53:47;;;;;;;0.00;0.00;;;23.50;51.80;;;;;;5091929;28;20236;-75
2022/08/26 11:56:23;;;;;;;7.88;1.27;;;23.30;53.20;;;;;;5097238;28;20028;-73
2022/08/26 11:58:52;;;;;;;0.63;0.05;;;23.40;53.40;;;;;;5094980;28;20131;-74
2022/08/26 12:01:27;;;;;;;5.28;4.90;;;23.40;52.70;;;;;;5096333;28;20104;-74
2022/08/26 12:04:04;;;;;;;3.38;0.57;;;23.50;52.80;;;;;;5097524;28;20032;-74
2022/08/26 12:06:45;;;;;;;0.00;0.00;;;23.60;52.90;;;;;;5091675;28;20055;-74
2022/08/26 12:09:20;;;;;;;0.10;0.10;;;23.60;53.10;;;;;;5097875;28;20028;-73
2022/08/26 12:11:46;;;;;;;0.00;0.00;;;23.60;52.50;;;;;;5099192;28;20035;-74
2022/08/26 12:14:19;;;;;;;44.42;20.30;;;23.50;52.30;;;;;;5093305;28;20016;-74
2022/08/26 12:16:45;;;;;;;0.10;0.10;;;23.50;52.00;;;;;;5097248;28;20477;-74
2022/08/26 12:19:30;;;;;;;6.00;5.72;;;23.30;52.50;;;;;;5099365;28;20419;-73
2022/08/26 12:22:21;;;;;;;0.68;0.43;;;23.30;52.50;;;;;;5095356;28;21680;-74
2022/08/26 12:24:53;;;;;;;3.15;1.15;;;23.30;52.20;;;;;;5091544;28;20031;-74
2022/08/26 12:27:31;;;;;;;1.42;0.85;;;23.20;52.10;;;;;;5088980;28;20510;-73
2022/08/26 12:30:06;;;;;;;0.43;0.43;;;23.20;52.50;;;;;;5096828;28;20116;-75
2022/08/26 12:32:33;;;;;;;0.70;0.65;;;23.20;52.50;;;;;;5094146;28;20062;-74
2022/08/26 12:35:01;;;;;;;0.00;0.00;;;23.20;52.50;;;;;;5101629;28;20069;-74
2022/08/26 12:37:34;;;;;;;0.45;0.45;;;23.30;52.00;;;;;;5095869;28;20038;-75
2022/08/26 12:40:38;;;;;;;0.13;0.13;;;23.40;51.60;;;;;;5099312;28;20107;-73
2022/08/26 12:43:11;;;;;;;0.85;0.30;;;23.30;51.90;;;;;;5100338;28;20047;-74
2022/08/26 12:45:42;;;;;;;0.77;0.73;;;23.30;51.70;;;;;;5098600;28;20020;-74
2022/08/26 12:48:39;;;;;;;0.00;0.00;;;23.20;51.70;;;;;;5096224;28;20482;-73
2022/08/26 12:51:13;;;;;;;0.77;0.77;;;23.20;51.80;;;;;;5090602;28;20051;-73
2022/08/26 12:53:43;;;;;;;0.52;0.38;;;23.20;52.10;;;;;;5094017;28;20066;-75
2022/08/26 12:56:40;;;;;;;0.55;0.55;;;23.10;52.10;;;;;;5091687;28;20096;-73
2022/08/26 12:59:22;;;;;;;0.10;0.10;;;23.10;52.10;;;;;;5096371;28;20123;-73
2022/08/26 13:01:48;;;;;;;0.28;0.28;;;23.10;52.20;;;;;;5102748;28;20085;-74
2022/08/26 13:04:35;;;;;;;0.20;0.10;;;23.10;52.20;;;;;;5095306;28;20077;-74
2022/08/26 13:07:25;;;;;;;0.00;0.00;;;23.20;52.10;;;;;;5099561;28;20106;-73
2022/08/26 13:09:53;;;;;;;0.22;0.22;;;23.10;52.30;;;;;;5098295;28;20097;-74
2022/08/26 13:12:30;;;;;;;0.28;0.10;;;23.20;52.50;;;;;;5096675;28;20032;-73
2022/08/26 13:14:58;;;;;;;8.50;0.75;;;22.90;52.30;;;;;;5093155;28;20266;-74
2022/08/26 13:17:26;;;;;;;0.10;0.10;;;22.80;52.50;;;;;;5090696;28;20020;-73
2022/08/26 13:19:52;;;;;;;0.47;0.15;;;22.80;52.80;;;;;;5091165;28;20053;-74
2022/08/26 13:22:23;;;;;;;3.22;1.35;;;22.80;52.00;;;;;;5095004;28;20145;-73